createdAt,value
2022-10-17T00:00:12.137Z,72.64
2022-10-17T00:10:16.442Z,73.05
2022-10-17T00:20:19.839Z,73.00
2022-10-17T00:30:24.268Z,73.13
2022-10-17T00:40:27.625Z,73.17
2022-10-17T00:50:32.535Z,73.33
2022-10-17T01:00:37.154Z,73.25
2022-10-17T01:10:54.827Z,73.70
2022-10-17T01:21:28.173Z,73.76
2022-10-17T01:31:38.157Z,73.27
2022-10-17T01:41:47.142Z,73.53
2022-10-17T01:51:56.010Z,73.65
2022-10-17T02:02:00.111Z,74.01
2022-10-17T02:12:25.566Z,73.87
2022-10-17T02:22:38.335Z,73.42
2022-10-17T02:32:50.441Z,73.44
2022-10-17T02:42:56.295Z,73.70
2022-10-17T02:53:06.524Z,73.86
2022-10-17T03:03:23.444Z,73.97
2022-10-17T03:13:27.776Z,73.74
2022-10-17T03:23:30.569Z,74.49
2022-10-17T03:33:34.870Z,74.44
2022-10-17T03:43:37.765Z,74.45
2022-10-17T03:53:42.518Z,74.39
2022-10-17T04:03:49.187Z,73.13
2022-10-17T04:13:56.028Z,69.75
2022-10-17T04:24:00.631Z,69.12
2022-10-17T04:34:05.332Z,64.76
2022-10-17T04:44:08.735Z,61.94
2022-10-17T04:54:13.249Z,59.34
2022-10-17T05:04:16.508Z,57.28
2022-10-17T05:14:22.121Z,55.80
2022-10-17T05:24:25.581Z,54.80
2022-10-17T05:34:31.076Z,53.37
2022-10-17T05:44:34.215Z,54.19
2022-10-17T05:54:42.474Z,53.77
2022-10-17T06:04:50.597Z,53.26
2022-10-17T06:15:01.150Z,53.52
2022-10-17T06:25:04.751Z,53.46
2022-10-17T06:35:34.582Z,53.28
2022-10-17T06:45:41.889Z,56.22
2022-10-17T06:55:52.637Z,54.35
2022-10-17T07:05:57.002Z,55.51
2022-10-17T07:16:04.735Z,53.75
2022-10-17T07:26:16.750Z,52.85
2022-10-17T07:36:31.693Z,53.31
2022-10-17T07:46:42.102Z,53.84
2022-10-17T07:56:52.126Z,53.62
2022-10-17T08:07:11.568Z,54.10
2022-10-17T08:17:21.951Z,53.04
2022-10-17T08:27:25.749Z,52.71
2022-10-17T08:37:31.991Z,52.73
2022-10-17T08:47:39.792Z,52.58
2022-10-17T08:57:44.724Z,52.17
2022-10-17T09:07:53.895Z,52.42
2022-10-17T09:18:03.513Z,51.81
2022-10-17T09:28:14.596Z,51.50
2022-10-17T09:38:19.723Z,52.20
2022-10-17T09:48:27.258Z,54.04
2022-10-17T09:58:44.165Z,52.09
2022-10-17T10:08:52.320Z,53.02
2022-10-17T10:18:57.090Z,52.45
2022-10-17T10:29:03.394Z,51.28
2022-10-17T10:39:16.760Z,50.80
2022-10-17T10:49:30.467Z,50.72
2022-10-17T10:59:40.084Z,51.39
2022-10-17T11:09:51.972Z,50.91
2022-10-17T11:20:08.022Z,51.29
2022-10-17T11:30:14.606Z,51.51
2022-10-17T11:40:27.382Z,51.42
2022-10-17T12:01:13.183Z,51.75
2022-10-17T12:11:29.103Z,52.55
2022-10-17T12:21:55.145Z,52.19
2022-10-17T12:32:12.239Z,58.18
2022-10-17T12:42:49.009Z,62.47
2022-10-17T12:53:06.772Z,63.48
2022-10-17T13:03:17.373Z,64.94
2022-10-17T13:13:25.749Z,65.81
2022-10-17T13:23:34.034Z,66.27
2022-10-17T13:33:39.504Z,67.16
2022-10-17T13:43:44.426Z,69.32
2022-10-17T13:53:47.235Z,71.59
2022-10-17T14:04:02.149Z,74.39
2022-10-17T14:14:20.136Z,75.18
2022-10-17T14:24:31.878Z,74.64
2022-10-17T14:34:36.884Z,75.60
2022-10-17T14:44:41.514Z,76.62
2022-10-17T14:54:52.357Z,76.95
2022-10-17T15:04:57.624Z,77.10
2022-10-17T15:15:00.582Z,77.01
2022-10-17T15:25:05.799Z,77.77
2022-10-17T15:35:09.815Z,78.11
2022-10-17T15:45:16.128Z,78.23
2022-10-17T15:55:19.597Z,79.08
2022-10-17T16:05:26.301Z,78.53
2022-10-17T16:15:32.466Z,79.70
2022-10-17T16:25:37.022Z,79.36
2022-10-17T16:35:40.440Z,80.55
2022-10-17T16:45:45.809Z,80.65
2022-10-17T16:56:00.085Z,82.18
2022-10-17T17:06:13.286Z,82.02
2022-10-17T17:16:19.096Z,82.43
2022-10-17T17:26:23.746Z,82.82
2022-10-17T17:36:28.484Z,82.55
2022-10-17T17:46:33.270Z,82.22
2022-10-17T17:56:36.738Z,83.04
2022-10-17T18:06:41.755Z,82.81
2022-10-17T18:16:45.002Z,83.12
2022-10-17T18:26:50.269Z,82.35
2022-10-17T18:36:54.103Z,83.40
2022-10-17T18:47:03.025Z,81.75
2022-10-17T18:57:07.791Z,82.35
2022-10-17T19:07:12.188Z,81.96
2022-10-17T19:17:15.242Z,81.44
2022-10-17T19:27:20.770Z,81.77
2022-10-17T19:37:23.657Z,81.66
2022-10-17T19:47:28.140Z,81.30
2022-10-17T19:57:31.010Z,81.03
2022-10-17T20:07:35.322Z,81.02
2022-10-17T20:17:38.363Z,81.04
2022-10-17T20:27:42.750Z,80.92
2022-10-17T20:37:45.626Z,80.64
2022-10-17T20:47:54.219Z,80.58
2022-10-17T20:57:57.685Z,81.37
2022-10-17T21:08:02.919Z,81.15
2022-10-17T21:18:05.873Z,80.70
2022-10-17T21:28:10.282Z,80.75
2022-10-17T21:38:13.155Z,80.57
2022-10-17T21:48:17.677Z,80.52
2022-10-17T21:58:20.656Z,80.67
2022-10-17T22:08:26.076Z,80.34
2022-10-17T22:18:29.661Z,80.39
2022-10-17T22:28:34.906Z,80.50
2022-10-17T22:38:38.178Z,81.45
2022-10-17T22:48:42.750Z,82.04
2022-10-17T22:58:46.330Z,82.44
2022-10-17T23:08:50.823Z,82.76
2022-10-17T23:18:53.688Z,82.52
2022-10-17T23:28:58.109Z,82.76
2022-10-17T23:39:01.244Z,82.36
2022-10-17T23:49:06.083Z,82.24
2022-10-17T23:59:09.646Z,82.25
